Time;durP1;ratioP1;P1;durP2;ratioP2;P2;SDS_P1;SDS_P2;PMS_P1;PMS_P2;Temp;Humidity;BMP_temperature;BMP_pressure;BME280_temperature;BME280_humidity;BME280_pressure;Samples;Min_cycle;Max_cycle;Signal;HPM_P1;HPM_P2
2020/12/13 00:00:16;;;;;;;32.00;19.53;;;;;;;-1.09;78.15;100391.19;1699940;82;21205;-90
2020/12/13 00:02:43;;;;;;;33.27;19.77;;;;;;;-1.05;78.09;100403.13;1687313;83;21186;-89
2020/12/13 00:05:10;;;;;;;;;;;;;;;-1.05;78.10;100407.05;1725387;80;21165;-88
2020/12/13 00:07:39;;;;;;;34.73;17.87;;;;;;;-1.04;78.04;100408.70;1705001;83;20175;-90
2020/12/13 00:10:06;;;;;;;;;;;;;;;-1.11;78.22;100407.48;1698842;83;21643;-89
2020/12/13 00:12:33;;;;;;;32.33;17.30;;;;;;;-1.10;78.31;100412.61;1746891;81;20411;-87
2020/12/13 00:15:01;;;;;;;29.80;19.13;;;;;;;-1.10;78.51;100406.06;1703223;82;21589;-92
2020/12/13 00:17:29;;;;;;;27.33;17.70;;;;;;;-1.07;78.56;100412.39;1738794;81;21162;-89
2020/12/13 00:19:56;;;;;;;;;;;;;;;-1.03;78.43;100417.76;1750769;81;21182;-87
2020/12/13 00:22:24;;;;;;;30.65;18.75;;;;;;;-1.01;78.44;100418.48;1731803;80;20212;-89
2020/12/13 00:24:50;;;;;;;30.00;17.17;;;;;;;-1.00;78.48;100412.31;1708573;82;21159;-87
2020/12/13 00:27:17;;;;;;;28.27;18.30;;;;;;;-0.98;78.49;100418.72;1707484;82;21204;-89
2020/12/13 00:29:45;;;;;;;31.13;18.27;;;;;;;-0.94;78.46;100410.17;1716771;82;21208;-90
2020/12/13 00:32:12;;;;;;;28.00;17.70;;;;;;;-0.92;78.44;100416.13;1710326;81;21178;-88
2020/12/13 00:34:39;;;;;;;27.17;17.00;;;;;;;-0.87;78.34;100420.56;1720742;81;22735;-87
2020/12/13 00:37:06;;;;;;;;;;;;;;;-0.87;78.37;100416.15;1711849;83;21115;-89
2020/12/13 00:39:37;;;;;;;26.23;16.32;;;;;;;-0.83;78.12;100408.91;1699933;83;20166;-89
2020/12/13 00:42:02;;;;;;;22.90;15.40;;;;;;;-0.92;78.29;100414.37;1691765;83;21164;-88
2020/12/13 00:44:29;;;;;;;29.48;17.55;;;;;;;-0.90;78.33;100412.47;1725458;82;21201;-88
2020/12/13 00:46:59;;;;;;;25.13;16.87;;;;;;;-0.87;78.35;100414.02;1706384;82;21203;-89
2020/12/13 00:49:27;;;;;;;23.37;15.13;;;;;;;-0.83;78.35;100422.00;1713005;82;21139;-93
2020/12/13 00:52:03;;;;;;;23.53;15.33;;;;;;;-0.77;78.37;100415.02;1708712;83;21353;-93
2020/12/13 00:54:49;;;;;;;26.80;15.73;;;;;;;-0.71;78.23;100403.27;1812343;77;22870;-93
2020/12/13 00:57:19;;;;;;;21.07;15.50;;;;;;;-0.73;78.20;100402.06;1776143;80;21262;-94
2020/12/13 00:59:53;;;;;;;21.57;14.83;;;;;;;-0.74;78.22;100394.32;1788119;80;21546;-94
2020/12/13 01:02:24;;;;;;;24.43;16.60;;;;;;;-0.72;78.10;100395.86;1770585;78;21641;-92
2020/12/13 01:05:04;;;;;;;24.53;15.53;;;;;;;-0.79;78.27;100387.65;1770255;80;21626;-87
2020/12/13 01:07:33;;;;;;;19.07;13.57;;;;;;;-0.74;78.26;100392.53;1774705;80;21784;-88
2020/12/13 01:10:03;;;;;;;23.57;15.60;;;;;;;-0.76;78.37;100391.81;1764573;78;21316;-87
2020/12/13 01:12:31;;;;;;;21.13;14.67;;;;;;;-0.65;78.11;100386.61;1772513;78;21211;-87
2020/12/13 01:14:58;;;;;;;23.87;16.37;;;;;;;-0.65;78.04;100386.61;1762905;80;21333;-85
2020/12/13 01:17:25;;;;;;;24.57;15.60;;;;;;;-0.71;78.22;100391.00;1756749;80;21785;-88
2020/12/13 01:19:53;;;;;;;23.87;14.83;;;;;;;-0.70;78.37;100392.66;1758059;80;21192;-88
2020/12/13 01:22:23;;;;;;;24.90;15.80;;;;;;;-0.56;78.05;100392.13;1757670;81;21160;-91
2020/12/13 01:24:51;;;;;;;22.77;14.93;;;;;;;-0.57;77.95;100393.06;1752604;80;21172;-87
2020/12/13 01:27:18;;;;;;;28.37;16.57;;;;;;;-0.65;78.10;100383.99;1763496;80;21141;-82
2020/12/13 01:29:46;;;;;;;22.40;15.67;;;;;;;-0.65;78.23;100385.30;1763319;80;21318;-80
2020/12/13 01:32:14;;;;;;;28.93;15.93;;;;;;;-0.56;77.97;100369.39;1760166;80;21175;-84
2020/12/13 01:34:41;;;;;;;25.53;14.97;;;;;;;-0.49;77.93;100375.84;1769922;80;21188;-84
2020/12/13 01:37:07;;;;;;;;;;;;;;;-0.52;78.05;100377.84;1738526;80;21256;-86
2020/12/13 01:39:35;;;;;;;24.67;14.23;;;;;;;-0.56;78.16;100376.42;1738996;81;20152;-85
2020/12/13 01:42:03;;;;;;;22.83;14.20;;;;;;;-0.53;78.06;100378.78;1731433;81;21157;-85
2020/12/13 01:44:31;;;;;;;;;;;;;;;-0.59;78.09;100380.91;1734987;79;21198;-86
2020/12/13 01:46:59;;;;;;;24.82;13.35;;;;;;;-0.55;78.08;100376.28;1737282;81;20383;-86
2020/12/13 01:49:34;;;;;;;18.63;13.47;;;;;;;-0.62;78.27;100374.61;1744225;81;21664;-85
2020/12/13 01:54:27;;;;;;;19.07;13.33;;;;;;;-0.57;78.31;100376.87;1733039;82;21180;-85
2020/12/13 01:56:55;;;;;;;;;;;;;;;-0.52;78.20;100369.99;1737442;81;21780;-87
2020/12/13 01:59:26;;;;;;;16.60;11.30;;;;;;;-0.57;78.27;100369.50;1722375;82;20198;-88
2020/12/13 02:02:00;;;;;;;18.50;12.80;;;;;;;-0.51;78.18;100376.88;1736522;82;21194;-85
2020/12/13 02:04:27;;;;;;;17.70;12.40;;;;;;;-0.47;78.19;100370.45;1722091;82;21211;-88
2020/12/13 02:06:55;;;;;;;18.87;12.13;;;;;;;-0.51;78.37;100365.09;1678438;82;21119;-89
2020/12/13 02:09:25;;;;;;;20.27;14.23;;;;;;;-0.54;78.47;100370.59;1656400;85;21211;-89
2020/12/13 02:11:53;;;;;;;18.63;12.97;;;;;;;-0.50;78.46;100374.16;1656762;85;21196;-87
2020/12/13 02:14:20;;;;;;;18.60;12.03;;;;;;;-0.53;78.54;100366.52;1625408;86;21165;-88
2020/12/13 02:16:51;;;;;;;18.03;13.03;;;;;;;-0.44;78.48;100378.09;1629111;86;21265;-87
2020/12/13 02:19:19;;;;;;;15.73;11.83;;;;;;;-0.37;78.30;100381.09;1630981;86;21353;-87
2020/12/13 02:21:48;;;;;;;17.90;12.43;;;;;;;-0.43;78.46;100380.59;1600208;88;21221;-89
2020/12/13 02:24:15;;;;;;;16.03;12.63;;;;;;;-0.45;78.68;100376.44;1603667;88;21246;-89
2020/12/13 02:26:44;;;;;;;20.23;13.57;;;;;;;-0.40;78.53;100375.59;1633388;86;21335;-87
2020/12/13 02:29:12;;;;;;;15.07;11.57;;;;;;;-0.41;78.71;100372.63;1626544;87;21789;-88
2020/12/13 02:31:39;;;;;;;18.17;13.30;;;;;;;-0.33;78.53;100370.25;1604618;88;22398;-88
2020/12/13 02:34:06;;;;;;;16.23;12.07;;;;;;;-0.26;78.38;100368.84;1637964;87;21222;-88
2020/12/13 02:36:33;;;;;;;18.70;11.87;;;;;;;-0.29;78.57;100359.89;1625841;86;21520;-87
2020/12/13 02:39:05;;;;;;;19.23;12.60;;;;;;;-0.33;78.70;100373.35;1596439;88;21161;-86
2020/12/13 02:41:33;;;;;;;19.03;13.93;;;;;;;-0.28;78.63;100368.12;1644838;86;21333;-87
2020/12/13 02:44:00;;;;;;;19.40;12.90;;;;;;;-0.18;78.41;100370.86;1620287;88;21667;-86
2020/12/13 02:46:27;;;;;;;22.10;12.20;;;;;;;-0.22;78.56;100363.72;1637789;86;21651;-87
2020/12/13 02:48:55;;;;;;;20.20;14.13;;;;;;;-0.27;78.87;100367.16;1633751;86;21162;-89
2020/12/13 02:51:23;;;;;;;17.33;11.53;;;;;;;-0.29;78.97;100374.78;1627671;86;21479;-89
2020/12/13 02:53:52;;;;;;;22.00;13.50;;;;;;;-0.16;78.84;100372.06;1604475;86;21209;-87
2020/12/13 02:56:19;;;;;;;20.93;13.83;;;;;;;-0.11;78.73;100358.97;1610590;86;21273;-89
2020/12/13 02:58:46;;;;;;;21.07;12.73;;;;;;;-0.16;78.91;100375.98;1635791;86;21373;-84
2020/12/13 03:01:13;;;;;;;21.23;13.53;;;;;;;-0.24;79.17;100367.41;1619024;87;21686;-85
2020/12/13 03:03:40;;;;;;;;;;;;;;;-0.23;79.28;100367.30;1632524;86;21210;-84
2020/12/13 03:06:08;;;;;;;21.35;14.87;;;;;;;-0.07;79.02;100366.94;1630149;86;20616;-86
2020/12/13 03:08:36;;;;;;;18.30;12.83;;;;;;;-0.10;79.08;100374.20;1625460;86;22103;-83
2020/12/13 03:11:06;;;;;;;23.20;15.33;;;;;;;-0.15;79.31;100368.02;1619377;86;21357;-83
2020/12/13 03:13:33;;;;;;;;;;;;;;;-0.18;79.41;100378.72;1628122;86;21699;-84
2020/12/13 03:16:00;;;;;;;17.50;12.07;;;;;;;-0.12;79.34;100374.80;1630405;86;20203;-83
2020/12/13 03:18:27;;;;;;;17.53;11.90;;;;;;;-0.01;79.15;100373.01;1629843;86;21325;-85
2020/12/13 03:20:53;;;;;;;;;;;;;;;0.01;79.22;100378.13;1628016;87;21231;-86
2020/12/13 03:23:24;;;;;;;22.33;13.93;;;;;;;-0.02;79.35;100377.91;1612737;87;20321;-85
2020/12/13 03:25:51;;;;;;;20.67;14.37;;;;;;;-0.13;79.56;100377.05;1631443;86;21445;-84
2020/12/13 03:28:18;;;;;;;16.83;12.00;;;;;;;-0.05;79.68;100378.62;1622070;87;21194;-84
2020/12/13 03:30:46;;;;;;;20.17;12.77;;;;;;;0.10;79.31;100375.28;1600304;88;21336;-84
2020/12/13 03:33:13;;;;;;;18.87;13.60;;;;;;;0.11;79.38;100379.55;1620618;86;21353;-85
2020/12/13 03:35:40;;;;;;;19.07;13.57;;;;;;;0.06;79.54;100372.06;1630911;85;21118;-84
2020/12/13 03:38:07;;;;;;;16.27;12.15;;;;;;;0.02;79.67;100364.55;1669009;84;21738;-85
2020/12/13 03:40:40;;;;;;;;;;;;;;;0.09;79.59;100374.42;1654172;85;21275;-90
2020/12/13 03:43:07;;;;;;;17.43;13.23;;;;;;;0.19;79.35;100366.22;1672902;84;20288;-91
2020/12/13 03:45:44;;;;;;;19.92;14.28;;;;;;;0.10;79.66;100355.14;1669277;83;21621;-92
2020/12/13 03:48:15;;;;;;;20.50;14.07;;;;;;;0.08;79.89;100351.81;1666730;84;21327;-92
2020/12/13 03:50:45;;;;;;;19.60;12.67;;;;;;;0.09;79.99;100352.63;1681797;80;21314;-90
2020/12/13 03:53:15;;;;;;;18.50;14.00;;;;;;;0.25;79.67;100346.55;1681683;80;21290;-88
2020/12/13 03:55:43;;;;;;;18.23;12.97;;;;;;;0.33;79.38;100347.25;1642042;83;21467;-89
2020/12/13 03:58:13;;;;;;;22.00;13.57;;;;;;;0.28;79.65;100341.04;1638490;86;21677;-88
2020/12/13 04:00:42;;;;;;;20.50;13.77;;;;;;;0.24;79.82;100340.94;1585448;87;21382;-88
2020/12/13 04:03:12;;;;;;;18.17;13.13;;;;;;;0.23;79.92;100339.73;1633067;87;21653;-89
2020/12/13 04:05:40;;;;;;;20.50;14.90;;;;;;;0.37;79.64;100342.94;1632666;87;21115;-87
2020/12/13 04:08:07;;;;;;;23.07;17.63;;;;;;;0.43;79.57;100349.48;1617164;87;21649;-88
2020/12/13 04:10:39;;;;;;;19.87;13.33;;;;;;;0.38;79.83;100360.34;1635839;87;21225;-87
2020/12/13 04:13:06;;;;;;;23.30;15.00;;;;;;;0.36;79.96;100364.06;1645132;83;21267;-88
2020/12/13 04:15:34;;;;;;;16.53;12.13;;;;;;;0.36;80.05;100363.57;1649199;86;21300;-88
2020/12/13 04:18:08;;;;;;;19.37;14.03;;;;;;;0.51;79.68;100366.77;1660234;84;21152;-85
2020/12/13 04:20:37;;;;;;;19.57;12.97;;;;;;;0.58;79.42;100369.27;1647313;86;21306;-90
2020/12/13 04:23:10;;;;;;;;;;;;;;;0.51;79.64;100369.39;1629527;87;21132;-90
2020/12/13 04:25:39;;;;;;;23.67;16.63;;;;;;;0.49;79.80;100373.92;1630354;86;20235;-86
2020/12/13 04:28:05;;;;;;;;;;;;;;;0.42;80.05;100372.74;1633485;86;21334;-88
2020/12/13 04:30:33;;;;;;;22.75;14.85;;;;;;;0.51;79.94;100372.47;1628876;86;20167;-87
2020/12/13 04:32:59;;;;;;;;;;;;;;;0.66;79.53;100376.97;1623171;86;21336;-87
2020/12/13 04:35:26;;;;;;;18.57;12.10;;;;;;;0.66;79.50;100373.03;1630937;86;20198;-88
2020/12/13 04:38:07;;;;;;;25.73;18.00;;;;;;;0.57;79.79;100370.20;1617437;87;21205;-87
2020/12/13 04:41:13;;;;;;;28.00;18.50;;;;;;;0.56;79.86;100369.01;1621764;87;21152;-89
2020/12/13 04:43:40;;;;;;;23.97;16.60;;;;;;;0.68;79.79;100369.80;1627757;87;21194;-89
2020/12/13 04:46:13;;;;;;;24.63;16.97;;;;;;;0.81;79.45;100365.26;1647430;86;21669;-89
2020/12/13 04:48:40;;;;;;;29.33;18.73;;;;;;;0.80;79.57;100369.31;1636873;87;21750;-89
2020/12/13 04:51:09;;;;;;;;;;;;;;;0.78;79.67;100365.01;1609420;87;21223;-87
2020/12/13 04:53:38;;;;;;;30.70;19.60;;;;;;;0.77;79.64;100369.06;1630621;86;20200;-88
2020/12/13 04:56:16;;;;;;;21.40;15.73;;;;;;;0.72;79.83;100365.52;1614367;86;21306;-87
2020/12/13 04:58:44;;;;;;;26.00;17.83;;;;;;;0.88;79.41;100374.27;1616191;86;21313;-88
2020/12/13 05:01:14;;;;;;;;;;;;;;;0.91;79.30;100379.77;1639515;86;21177;-88
2020/12/13 05:03:44;;;;;;;27.97;19.10;;;;;;;0.86;79.65;100369.63;1653932;86;20199;-88
2020/12/13 05:06:13;;;;;;;30.53;19.23;;;;;;;0.78;80.01;100378.12;1631625;83;21119;-87
2020/12/13 05:08:39;;;;;;;31.77;19.47;;;;;;;0.78;80.12;100378.61;1611559;85;21204;-86
2020/12/13 05:11:07;;;;;;;34.17;19.73;;;;;;;0.86;80.12;100389.80;1654981;86;21611;-86
2020/12/13 05:13:38;;;;;;;28.37;19.17;;;;;;;0.93;79.84;100379.98;1644783;84;21223;-88
2020/12/13 05:16:10;;;;;;;31.97;20.90;;;;;;;0.86;80.09;100377.50;1644757;86;21839;-88
2020/12/13 05:18:40;;;;;;;29.50;17.93;;;;;;;0.73;80.57;100381.59;1615201;87;21327;-88
2020/12/13 05:21:24;;;;;;;29.98;20.75;;;;;;;0.80;80.68;100374.56;1600984;88;21129;-87
2020/12/13 05:24:16;;;;;;;32.30;20.97;;;;;;;0.95;80.29;100379.38;1666038;85;21199;-85
2020/12/13 05:26:43;;;;;;;41.10;25.90;;;;;;;1.00;80.41;100376.86;1661850;85;21400;-87
2020/12/13 05:29:11;;;;;;;35.50;22.10;;;;;;;0.95;80.53;100374.13;1621327;85;21232;-87
2020/12/13 05:31:41;;;;;;;39.47;21.77;;;;;;;0.94;80.61;100372.48;1615873;85;21706;-86
2020/12/13 05:34:17;;;;;;;32.97;22.73;;;;;;;0.96;80.54;100377.13;1670075;85;21181;-87
2020/12/13 05:36:46;;;;;;;29.82;22.07;;;;;;;1.09;80.15;100367.77;1631996;85;21144;-91
2020/12/13 05:39:16;;;;;;;40.17;24.00;;;;;;;1.09;80.13;100372.17;1630514;87;21180;-87
2020/12/13 05:41:44;;;;;;;33.40;19.97;;;;;;;0.99;80.57;100366.02;1624385;87;21180;-83
2020/12/13 05:47:23;;;;;;;38.80;22.70;;;;;;;1.03;80.64;100363.00;1804679;77;22586;-87
2020/12/13 05:52:25;;;;;;;36.73;21.90;;;;;;;1.06;80.66;100361.45;1746696;81;21118;-88
2020/12/13 05:54:55;;;;;;;30.90;18.97;;;;;;;1.02;80.67;100359.19;1718868;81;21150;-86
2020/12/13 05:57:24;;;;;;;34.67;21.00;;;;;;;1.09;80.54;100373.48;1698167;83;21193;-86
2020/12/13 05:59:50;;;;;;;;;;;;;;;1.21;80.12;100372.48;1724849;81;21134;-86
2020/12/13 06:02:19;;;;;;;34.23;21.77;;;;;;;1.22;80.13;100374.12;1732166;81;20146;-86
2020/12/13 06:04:47;;;;;;;39.00;24.97;;;;;;;1.11;80.42;100365.85;1711887;81;21161;-86
2020/12/13 06:07:14;;;;;;;;;;;;;;;1.08;80.51;100363.95;1683460;82;21100;-86
2020/12/13 06:09:44;;;;;;;31.95;18.25;;;;;;;1.17;80.31;100372.39;1712349;81;20290;-85
2020/12/13 06:12:11;;;;;;;37.53;23.40;;;;;;;1.23;79.85;100376.30;1716092;81;21347;-86
2020/12/13 06:14:42;;;;;;;31.33;20.00;;;;;;;1.23;80.02;100379.75;1709176;83;21702;-85
2020/12/13 06:17:09;;;;;;;41.60;24.10;;;;;;;1.20;80.08;100387.05;1697208;83;21195;-87
2020/12/13 06:19:38;;;;;;;40.20;25.17;;;;;;;1.08;80.21;100383.64;1690996;83;21215;-87
2020/12/13 06:22:07;;;;;;;34.90;23.90;;;;;;;1.20;79.96;100390.50;1715803;83;21176;-84
2020/12/13 06:24:41;;;;;;;34.30;23.80;;;;;;;1.19;79.89;100395.87;1700722;83;21643;-87
2020/12/13 06:27:07;;;;;;;41.53;25.33;;;;;;;1.12;80.20;100398.18;1724623;83;21212;-85
2020/12/13 06:29:34;;;;;;;;;;;;;;;1.08;80.44;100392.34;1714917;82;21346;-87
2020/12/13 06:32:01;;;;;;;37.60;24.50;;;;;;;1.16;80.35;100388.60;1687942;83;20167;-87
2020/12/13 06:34:30;;;;;;;39.67;25.67;;;;;;;1.22;79.96;100393.83;1711433;82;21200;-86
2020/12/13 06:36:57;;;;;;;42.83;26.30;;;;;;;1.22;79.92;100398.25;1700403;83;21075;-86
2020/12/13 06:39:24;;;;;;;50.53;27.03;;;;;;;1.10;80.18;100399.61;1696530;83;21281;-83
2020/12/13 06:42:00;;;;;;;49.67;27.60;;;;;;;1.07;80.48;100392.47;1689510;83;21197;-85
2020/12/13 06:44:31;;;;;;;46.23;28.10;;;;;;;1.21;80.26;100401.86;1642811;84;21175;-85
2020/12/13 06:47:25;;;;;;;42.63;27.37;;;;;;;1.23;80.14;100384.17;1657364;84;21220;-82
2020/12/13 06:49:53;;;;;;;43.10;25.83;;;;;;;1.21;80.37;100399.23;1655184;84;21164;-80
2020/12/13 06:52:32;;;;;;;43.67;27.03;;;;;;;1.16;80.46;100389.91;1631053;86;21643;-82
2020/12/13 06:55:06;;;;;;;39.90;24.65;;;;;;;1.29;80.15;100392.37;1628074;86;21331;-82
2020/12/13 06:57:34;;;;;;;46.90;28.83;;;;;;;1.36;79.86;100374.32;1634761;86;21210;-83
2020/12/13 07:00:09;;;;;;;51.37;29.00;;;;;;;1.24;79.99;100385.34;1638746;86;21375;-81
2020/12/13 07:02:57;;;;;;;47.78;25.17;;;;;;;1.15;80.18;100377.76;1631766;86;21368;-81
2020/12/13 07:08:35;;;;;;;45.10;29.20;;;;;;;1.38;79.88;100382.08;1766173;79;23115;-84
2020/12/13 07:11:04;;;;;;;46.23;29.67;;;;;;;1.27;80.05;100381.64;1727615;80;21212;-82
2020/12/13 07:13:33;;;;;;;48.53;29.60;;;;;;;1.21;80.20;100386.92;1734769;80;21326;-81
2020/12/13 07:16:06;;;;;;;47.30;27.90;;;;;;;1.24;80.12;100389.28;1732397;82;21172;-80
2020/12/13 07:18:35;;;;;;;53.97;32.13;;;;;;;1.35;79.85;100397.09;1731430;82;21176;-81
2020/12/13 07:21:02;;;;;;;51.87;33.77;;;;;;;1.33;79.86;100402.14;1732627;80;21152;-84
2020/12/13 07:23:29;;;;;;;54.47;30.53;;;;;;;1.28;80.07;100388.55;1731869;80;21180;-82
2020/12/13 07:25:56;;;;;;;50.33;27.70;;;;;;;1.25;80.19;100389.64;1731107;80;21715;-82
2020/12/13 07:28:23;;;;;;;48.50;28.63;;;;;;;1.28;80.01;100389.86;1733240;82;21693;-82
2020/12/13 07:30:50;;;;;;;49.53;30.73;;;;;;;1.35;79.77;100381.34;1741741;80;21230;-81
2020/12/13 07:33:20;;;;;;;55.00;28.67;;;;;;;1.39;79.76;100392.92;1705034;82;21185;-84
2020/12/13 07:35:47;;;;;;;50.83;31.00;;;;;;;1.29;79.96;100403.36;1742698;80;21092;-84
2020/12/13 07:38:42;;;;;;;43.07;27.50;;;;;;;1.24;80.15;100393.22;1666057;84;21180;-93
2020/12/13 07:41:32;;;;;;;46.80;29.53;;;;;;;1.32;80.09;100392.61;1620997;87;21178;-92
2020/12/13 07:44:33;;;;;;;48.42;28.30;;;;;;;1.41;79.80;100397.07;1615433;88;21216;-92
2020/12/13 07:47:06;;;;;;;45.23;22.97;;;;;;;1.25;80.17;100413.28;1612848;87;21223;-88
2020/12/13 07:49:35;;;;;;;47.97;27.27;;;;;;;1.19;80.37;100399.80;1602796;88;21221;-84
2020/12/13 07:52:03;;;;;;;40.20;23.10;;;;;;;1.26;80.36;100407.08;1629028;86;21643;-86
2020/12/13 07:54:34;;;;;;;53.93;31.00;;;;;;;1.34;80.12;100404.64;1630491;86;21217;-84
2020/12/13 07:57:15;;;;;;;49.93;30.77;;;;;;;1.30;80.19;100408.48;1604633;88;21222;-92
2020/12/13 07:59:58;;;;;;;;;;;;;;;;;;;;;
2020/12/13 08:03:15;;;;;;;46.60;26.77;;;;;;;1.22;80.53;100418.77;1574940;86;20206;-86
2020/12/13 08:05:44;;;;;;;45.03;28.80;;;;;;;1.30;80.32;100416.83;1600781;86;21709;-86
2020/12/13 08:08:11;;;;;;;39.33;24.97;;;;;;;1.34;80.23;100416.46;1642761;86;21805;-87
2020/12/13 08:10:39;;;;;;;47.73;29.03;;;;;;;1.29;80.37;100421.25;1638507;86;21232;-87
2020/12/13 08:13:10;;;;;;;45.90;26.87;;;;;;;1.22;80.49;100424.51;1623252;86;21947;-84
2020/12/13 08:15:46;;;;;;;44.03;27.17;;;;;;;1.33;80.43;100420.52;1807539;79;23522;-85
2020/12/13 08:18:16;;;;;;;46.80;28.27;;;;;;;1.32;80.17;100431.52;1769112;79;21364;-87
2020/12/13 08:20:46;;;;;;;50.10;29.97;;;;;;;1.27;80.42;100427.11;1775038;79;21812;-88
2020/12/13 08:23:14;;;;;;;47.03;26.00;;;;;;;1.24;80.63;100431.29;1776748;79;21345;-86
2020/12/13 08:25:41;;;;;;;41.03;25.83;;;;;;;1.34;80.51;100416.95;1741284;80;22192;-86
2020/12/13 08:28:12;;;;;;;44.90;27.57;;;;;;;1.40;80.09;100425.62;1741016;80;21195;-88
2020/12/13 08:30:40;;;;;;;43.93;28.33;;;;;;;1.36;80.14;100424.22;1720680;81;21365;-86
2020/12/13 08:33:13;;;;;;;42.40;25.80;;;;;;;1.28;80.47;100417.44;1737222;81;21618;-89
2020/12/13 08:35:40;;;;;;;43.00;26.60;;;;;;;1.32;80.44;100419.70;1726362;81;21102;-89
2020/12/13 08:38:10;;;;;;;43.20;27.23;;;;;;;1.43;80.10;100421.91;1681809;84;21215;-87
2020/12/13 08:40:45;;;;;;;43.43;26.40;;;;;;;1.42;80.15;100419.77;1676248;84;21159;-89
2020/12/13 08:43:19;;;;;;;36.03;24.77;;;;;;;1.36;80.33;100427.67;1660653;85;21236;-85
2020/12/13 08:45:52;;;;;;;40.30;24.07;;;;;;;1.27;80.42;100413.98;1665764;85;21687;-88
2020/12/13 08:48:27;;;;;;;29.00;18.97;;;;;;;1.40;80.22;100414.30;1698511;83;21217;-86
2020/12/13 08:51:10;;;;;;;41.40;27.23;;;;;;;1.44;80.10;100409.14;1693636;83;21189;-87
2020/12/13 08:53:41;;;;;;;40.83;24.73;;;;;;;1.29;80.32;100408.12;1699077;83;21217;-86
2020/12/13 08:56:10;;;;;;;37.70;23.90;;;;;;;1.23;80.66;100404.70;1681674;84;21204;-86
2020/12/13 08:58:52;;;;;;;37.40;25.17;;;;;;;1.29;80.53;100409.92;1664426;85;21203;-88
2020/12/13 09:01:25;;;;;;;40.07;27.20;;;;;;;1.43;80.20;100415.34;1693614;83;21296;-87
2020/12/13 09:03:55;;;;;;;36.17;21.60;;;;;;;1.41;80.29;100403.64;1676258;84;21192;-86
2020/12/13 09:06:31;;;;;;;29.67;18.30;;;;;;;1.38;80.33;100396.52;1686171;83;21121;-85
2020/12/13 09:09:11;;;;;;;35.07;22.50;;;;;;;1.33;80.28;100397.71;1644222;84;21187;-87
2020/12/13 09:11:40;;;;;;;35.40;21.67;;;;;;;1.46;79.87;100399.33;1687086;83;21220;-86
2020/12/13 09:14:07;;;;;;;39.57;25.30;;;;;;;1.47;79.79;100400.52;1686100;83;21185;-88
2020/12/13 09:16:36;;;;;;;39.90;23.50;;;;;;;1.43;80.02;100391.23;1663781;84;21682;-85
2020/12/13 09:19:11;;;;;;;39.80;24.23;;;;;;;1.35;80.02;100383.97;1679641;84;21231;-87
2020/12/13 09:21:44;;;;;;;30.03;17.87;;;;;;;1.38;79.91;100382.08;1680337;84;21174;-85
2020/12/13 09:24:11;;;;;;;39.33;25.00;;;;;;;1.47;79.51;100382.59;1665956;85;21374;-86
2020/12/13 09:26:39;;;;;;;39.63;23.87;;;;;;;1.44;79.62;100377.13;1653527;84;21195;-87
2020/12/13 09:29:08;;;;;;;46.00;27.93;;;;;;;1.40;79.73;100372.27;1650854;85;21219;-87
2020/12/13 09:31:37;;;;;;;50.63;28.37;;;;;;;1.36;79.81;100376.45;1648398;85;21215;-85
2020/12/13 09:34:07;;;;;;;41.53;27.10;;;;;;;1.43;79.65;100372.00;1605407;87;21246;-89
2020/12/13 09:37:25;;;;;;;40.90;28.10;;;;;;;1.61;79.30;100363.06;1745907;77;22727;-86
2020/12/13 09:39:54;;;;;;;46.60;26.73;;;;;;;1.56;79.26;100368.69;1746091;81;21245;-89
2020/12/13 09:42:27;;;;;;;43.23;27.77;;;;;;;1.51;79.29;100374.83;1739731;81;21195;-87
2020/12/13 09:45:16;;;;;;;46.43;26.93;;;;;;;1.44;79.36;100376.30;1749730;80;21169;-88
2020/12/13 09:47:59;;;;;;;51.95;28.83;;;;;;;1.56;79.12;100370.00;1742730;80;21191;-85
2020/12/13 09:50:29;;;;;;;43.63;27.23;;;;;;;1.59;79.06;100363.19;1745592;80;21181;-87
2020/12/13 09:52:56;;;;;;;40.73;24.80;;;;;;;1.52;79.24;100365.98;1748233;80;21174;-85
2020/12/13 09:55:24;;;;;;;;;;;;;;;1.47;79.15;100360.27;1750286;80;21766;-87
2020/12/13 09:57:53;;;;;;;41.70;25.83;;;;;;;1.43;79.26;100354.92;1736045;80;20155;-89
2020/12/13 10:00:20;;;;;;;47.63;27.00;;;;;;;1.51;79.10;100359.08;1739390;81;21139;-85
2020/12/13 10:02:47;;;;;;;46.28;28.60;;;;;;;1.46;79.08;100354.19;1701898;82;21173;-85
2020/12/13 10:05:32;;;;;;;45.93;28.37;;;;;;;1.40;79.46;100359.97;1706369;81;21635;-86
2020/12/13 10:10:38;;;;;;;39.63;24.90;;;;;;;1.44;79.47;100344.78;1687551;82;21210;-87
2020/12/13 10:13:04;;;;;;;43.97;27.17;;;;;;;1.58;79.03;100344.43;1714523;82;21280;-86
2020/12/13 10:15:31;;;;;;;;;;;;;;;1.53;79.06;100357.14;1707564;82;21294;-84
2020/12/13 10:17:58;;;;;;;41.90;26.57;;;;;;;1.49;79.27;100353.12;1713186;82;20203;-86
2020/12/13 10:20:26;;;;;;;43.97;27.50;;;;;;;1.40;79.38;100347.32;1716083;82;21153;-84
2020/12/13 10:22:53;;;;;;;43.90;26.60;;;;;;;1.47;79.36;100353.70;1717777;81;21383;-86
2020/12/13 10:25:22;;;;;;;40.13;26.93;;;;;;;1.62;78.95;100337.12;1705322;82;21646;-87
2020/12/13 10:27:49;;;;;;;50.57;29.23;;;;;;;1.58;78.85;100338.35;1715119;82;22186;-87
2020/12/13 10:30:15;;;;;;;;;;;;;;;1.50;79.11;100333.75;1710515;82;21789;-87
2020/12/13 10:32:42;;;;;;;35.90;21.73;;;;;;;1.44;79.32;100330.34;1707286;82;20183;-87
2020/12/13 10:35:09;;;;;;;39.57;24.87;;;;;;;1.48;79.14;100342.24;1702249;81;21141;-87
2020/12/13 10:37:36;;;;;;;;;;;;;;;1.54;79.02;100335.15;1715042;82;21767;-85
2020/12/13 10:40:03;;;;;;;38.63;25.63;;;;;;;1.48;79.13;100330.42;1704375;82;20329;-89
2020/12/13 10:42:34;;;;;;;44.57;24.57;;;;;;;1.37;79.52;100353.64;1737253;80;21195;-83
2020/12/13 10:45:02;;;;;;;27.80;20.30;;;;;;;1.45;79.39;100330.67;1742460;80;21182;-88
2020/12/13 10:47:29;;;;;;;40.67;24.43;;;;;;;1.57;78.89;100324.39;1733917;80;21579;-84
2020/12/13 10:49:58;;;;;;;36.53;23.43;;;;;;;1.55;78.98;100325.01;1750439;80;21276;-87
2020/12/13 10:55:00;;;;;;;36.00;22.87;;;;;;;1.52;79.25;100329.20;1840401;76;23198;-84
2020/12/13 10:57:28;;;;;;;;;;;;;;;1.58;79.11;100318.65;1849548;77;21147;-90
2020/12/13 10:59:54;;;;;;;33.13;22.10;;;;;;;1.71;78.56;100330.62;1822585;77;20263;-87
2020/12/13 11:02:21;;;;;;;35.47;23.63;;;;;;;1.65;78.59;100321.93;1837541;77;21168;-89
2020/12/13 11:04:49;;;;;;;42.17;26.17;;;;;;;1.60;78.83;100334.66;1852354;77;21164;-88
2020/12/13 11:07:16;;;;;;;39.27;25.87;;;;;;;1.57;78.97;100324.39;1770288;76;21528;-87
2020/12/13 11:09:44;;;;;;;34.30;22.53;;;;;;;1.56;79.02;100338.48;1766594;80;21345;-87
2020/12/13 11:12:11;;;;;;;27.13;18.00;;;;;;;0.72;78.83;100186.28;1706903;83;21204;-84
2020/12/13 11:14:38;;;;;;;;;;;;;;;1.74;78.35;100334.28;1746427;81;21152;-89
2020/12/13 11:17:05;;;;;;;31.60;21.20;;;;;;;1.70;78.18;100326.32;1722846;82;20197;-88
2020/12/13 11:19:32;;;;;;;29.23;19.87;;;;;;;1.58;78.75;100333.09;1699975;82;21187;-87
2020/12/13 11:21:59;;;;;;;25.97;19.93;;;;;;;1.53;78.92;100330.88;1708721;82;21210;-86
2020/12/13 11:24:27;;;;;;;23.40;16.27;;;;;;;1.51;79.10;100334.11;1711885;82;21214;-85
2020/12/13 11:26:54;;;;;;;23.23;17.00;;;;;;;1.64;78.76;100326.85;1729181;81;21184;-83
2020/12/13 11:29:24;;;;;;;24.03;17.93;;;;;;;1.71;78.59;100328.00;1729137;81;21199;-87
2020/12/13 11:31:52;;;;;;;33.83;21.00;;;;;;;1.66;78.62;100333.30;1732899;81;21203;-86
2020/12/13 11:34:22;;;;;;;23.83;16.17;;;;;;;1.57;78.83;100340.64;1710395;82;21225;-86
2020/12/13 11:36:48;;;;;;;24.40;16.67;;;;;;;1.53;79.06;100333.02;1707546;82;21227;-85
2020/12/13 11:39:15;;;;;;;;;;;;;;;1.60;78.97;100328.08;1701373;82;21183;-85
2020/12/13 11:41:42;;;;;;;20.43;15.87;;;;;;;1.74;78.66;100336.09;1709326;82;20225;-85
2020/12/13 11:44:09;;;;;;;23.53;17.27;;;;;;;1.67;78.73;100330.52;1692473;82;21734;-87
2020/12/13 11:46:36;;;;;;;27.63;19.03;;;;;;;1.61;78.91;100328.42;1718418;81;21232;-83
2020/12/13 11:49:04;;;;;;;18.10;13.50;;;;;;;1.58;79.07;100326.53;1718844;81;21823;-88
2020/12/13 11:51:36;;;;;;;21.27;15.93;;;;;;;1.63;78.86;100326.48;1687031;83;21290;-86
2020/12/13 11:54:06;;;;;;;20.03;16.93;;;;;;;1.77;78.57;100331.05;1703187;82;21213;-86